Time;durP1;ratioP1;P1;durP2;ratioP2;P2;SDS_P1;SDS_P2;PMS_P1;PMS_P2;Temp;Humidity;BMP_temperature;BMP_pressure;BME280_temperature;BME280_humidity;BME280_pressure;Samples;Min_cycle;Max_cycle;Signal;HPM_P1;HPM_P2
2023/04/15 00:00:54;;;;;;;13.73;7.25;;;;;;;13.45;47.69;100921.44;4983456;28;20045;-46
2023/04/15 00:03:19;;;;;;;13.55;7.63;;;;;;;13.08;48.14;100917.81;4980394;28;20073;-43
2023/04/15 00:05:44;;;;;;;12.02;7.22;;;;;;;13.12;48.08;100920.47;4983615;28;20449;-38
2023/04/15 00:08:10;;;;;;;14.88;7.72;;;;;;;13.02;47.59;100924.75;4980495;28;20508;-43
2023/04/15 00:10:35;;;;;;;12.27;7.68;;;;;;;13.31;47.36;100924.03;4982935;28;20412;-41
2023/04/15 00:13:01;;;;;;;16.70;8.25;;;;;;;13.12;48.01;100920.47;4982830;28;20165;-40
2023/04/15 00:15:27;;;;;;;13.65;8.07;;;;;;;13.28;47.54;100922.28;4979997;28;20053;-41
2023/04/15 00:17:52;;;;;;;16.17;8.07;;;;;;;13.12;47.50;100922.16;4982898;28;20493;-44
2023/04/15 00:20:18;;;;;;;12.52;7.90;;;;;;;13.05;47.49;100923.03;4978971;28;20480;-42
2023/04/15 00:22:43;;;;;;;15.80;8.00;;;;;;;13.22;47.47;100922.25;4983224;28;20038;-41
2023/04/15 00:25:09;;;;;;;14.65;8.20;;;;;;;13.18;48.01;100930.06;4979562;28;20041;-46
2023/04/15 00:27:34;;;;;;;12.88;8.07;;;;;;;13.00;48.50;100925.63;4981972;28;20046;-43
2023/04/15 00:30:00;;;;;;;17.00;8.63;;;;;;;12.79;48.64;100933.38;4982813;28;20120;-44
2023/04/15 00:32:25;;;;;;;21.27;9.30;;;;;;;12.37;49.49;100936.59;4979700;28;20172;-44
2023/04/15 00:34:51;;;;;;;13.85;8.68;;;;;;;12.68;49.07;100933.31;4982830;28;20417;-41
2023/04/15 00:37:16;;;;;;;16.98;9.23;;;;;;;12.42;49.27;100934.91;4978800;28;20031;-41
2023/04/15 00:39:41;;;;;;;16.70;9.00;;;;;;;12.37;49.20;100940.09;4983387;28;20034;-45
2023/04/15 00:42:07;;;;;;;15.95;8.82;;;;;;;12.59;48.81;100943.72;4979157;28;20089;-41
2023/04/15 00:44:33;;;;;;;16.63;9.65;;;;;;;12.58;48.78;100940.22;4986100;28;20244;-44
2023/04/15 00:46:59;;;;;;;16.85;9.38;;;;;;;12.47;49.22;100939.28;4985808;28;20113;-42
2023/04/15 00:49:26;;;;;;;16.27;9.68;;;;;;;12.44;49.53;100943.63;4980756;28;20053;-41
2023/04/15 00:51:51;;;;;;;16.50;9.80;;;;;;;12.25;49.69;100941.75;4982881;28;20423;-41
2023/04/15 00:54:16;;;;;;;17.65;9.55;;;;;;;12.22;49.30;100937.34;4978825;28;20068;-43
2023/04/15 00:56:42;;;;;;;17.23;9.68;;;;;;;12.35;49.54;100933.09;4983363;28;20034;-42
2023/04/15 00:59:08;;;;;;;21.40;9.98;;;;;;;12.33;49.21;100933.06;4980183;28;20030;-42
2023/04/15 01:01:35;;;;;;;18.35;9.68;;;;;;;11.99;49.82;100937.19;4984333;28;20113;-44
2023/04/15 01:04:01;;;;;;;17.17;9.93;;;;;;;12.31;49.37;100940.06;4985262;28;20069;-42
2023/04/15 01:06:27;;;;;;;17.70;9.60;;;;;;;12.34;49.04;100937.44;4981104;28;20306;-40
2023/04/15 01:08:53;;;;;;;17.00;9.30;;;;;;;12.29;49.34;100936.53;4982343;28;20034;-43
2023/04/15 01:11:18;;;;;;;15.85;9.68;;;;;;;12.37;49.46;100942.72;4979155;28;20038;-41
2023/04/15 01:13:45;;;;;;;15.80;9.13;;;;;;;12.32;49.25;100940.94;4984936;28;20380;-40
2023/04/15 01:16:12;;;;;;;16.00;9.60;;;;;;;12.18;49.59;100936.47;4982497;28;20089;-44
2023/04/15 01:18:37;;;;;;;18.33;9.52;;;;;;;11.97;49.82;100943.25;4985971;28;20092;-48
2023/04/15 01:21:04;;;;;;;16.00;9.57;;;;;;;11.99;49.32;100945.03;4983376;28;20477;-40
2023/04/15 01:23:30;;;;;;;15.10;8.95;;;;;;;12.08;49.49;100941.59;4986425;28;20484;-42
2023/04/15 01:25:58;;;;;;;14.50;9.18;;;;;;;11.79;49.87;100942.22;4982781;28;20042;-42
2023/04/15 01:28:24;;;;;;;16.02;9.45;;;;;;;11.98;50.11;100945.00;4980126;28;20042;-43
2023/04/15 01:30:49;;;;;;;17.63;9.73;;;;;;;11.79;49.64;100942.22;4984539;28;20038;-42
2023/04/15 01:33:15;;;;;;;16.73;9.23;;;;;;;12.05;49.65;100939.84;4980668;28;20053;-42
2023/04/15 01:35:43;;;;;;;14.88;9.52;;;;;;;12.01;50.05;100937.19;4985088;28;20038;-41
2023/04/15 01:38:10;;;;;;;16.85;9.40;;;;;;;11.97;49.71;100940.63;4980919;28;20093;-44
2023/04/15 01:40:35;;;;;;;16.02;8.85;;;;;;;11.92;50.10;100939.72;4984962;28;20035;-43
2023/04/15 01:43:01;;;;;;;17.30;9.63;;;;;;;11.82;50.34;100941.38;4985728;28;20042;-42
2023/04/15 01:45:27;;;;;;;15.85;9.52;;;;;;;11.95;50.23;100945.00;4983570;28;20026;-44
2023/04/15 01:47:52;;;;;;;16.27;9.57;;;;;;;11.83;50.47;100950.09;4985741;28;20042;-41
2023/04/15 01:50:19;;;;;;;15.75;9.13;;;;;;;11.82;50.55;100940.50;4981239;28;20034;-42
2023/04/15 01:52:44;;;;;;;15.65;9.15;;;;;;;11.79;50.79;100944.84;4985775;28;20061;-42
2023/04/15 01:55:10;;;;;;;17.38;10.00;;;;;;;11.70;51.53;100944.72;4983426;28;20061;-42
2023/04/15 01:57:35;;;;;;;16.38;9.70;;;;;;;11.60;51.58;100950.69;4985862;28;20038;-42
2023/04/15 02:00:02;;;;;;;17.15;9.63;;;;;;;11.63;51.20;100950.75;4982473;28;20027;-46
2023/04/15 02:02:28;;;;;;;14.95;9.05;;;;;;;11.77;50.91;100957.00;4979226;28;20397;-43
2023/04/15 02:04:53;;;;;;;18.13;10.10;;;;;;;11.70;51.06;100957.78;4982070;28;20034;-42
2023/04/15 02:07:18;;;;;;;18.77;9.82;;;;;;;11.78;50.94;100950.03;4979803;28;20241;-41
2023/04/15 02:09:44;;;;;;;16.92;9.63;;;;;;;11.76;51.15;100959.59;4984339;28;20070;-42
2023/04/15 02:12:10;;;;;;;15.82;9.32;;;;;;;11.72;51.23;100949.94;4978966;28;20039;-42
2023/04/15 02:14:36;;;;;;;15.30;9.70;;;;;;;11.74;51.42;100954.34;4983570;28;20141;-42
2023/04/15 02:17:06;;;;;;;17.38;9.52;;;;;;;11.38;52.60;100957.44;4984661;28;20057;-43
2023/04/15 02:19:34;;;;;;;17.63;10.35;;;;;;;11.18;53.33;100966.75;4981776;28;20146;-46
2023/04/15 02:22:03;;;;;;;18.33;10.18;;;;;;;11.56;52.38;100966.31;4988333;28;20031;-43
2023/04/15 02:24:29;;;;;;;17.13;10.25;;;;;;;11.43;52.93;100964.44;4968007;28;20042;-42
2023/04/15 02:26:55;;;;;;;15.70;9.43;;;;;;;11.45;52.88;100958.38;4987961;28;20417;-43
2023/04/15 02:29:21;;;;;;;18.65;9.63;;;;;;;11.36;53.07;100958.25;4983412;28;20129;-42
2023/04/15 02:31:47;;;;;;;16.95;10.13;;;;;;;11.34;53.35;100965.22;4987850;28;20174;-41
2023/04/15 02:34:13;;;;;;;15.63;9.98;;;;;;;11.37;53.22;100965.22;4985239;28;20549;-41
2023/04/15 02:36:39;;;;;;;18.02;9.90;;;;;;;11.20;54.11;100974.59;4988090;28;20048;-43
2023/04/15 02:39:04;;;;;;;15.75;9.90;;;;;;;11.11;54.02;100980.56;4982556;28;20066;-41
2023/04/15 02:41:30;;;;;;;15.27;9.63;;;;;;;11.26;53.93;100985.13;4984710;28;20096;-41
2023/04/15 02:43:55;;;;;;;18.05;9.65;;;;;;;11.20;53.66;100980.69;4984430;28;20031;-42
2023/04/15 02:46:21;;;;;;;17.08;9.88;;;;;;;11.15;54.14;100989.34;4981214;28;20037;-46
2023/04/15 02:48:48;;;;;;;15.23;9.35;;;;;;;11.25;53.74;100988.56;4989718;28;20035;-42
2023/04/15 02:51:15;;;;;;;22.50;9.77;;;;;;;11.15;54.30;100992.81;4986832;28;20045;-46
2023/04/15 02:53:41;;;;;;;18.15;9.85;;;;;;;11.02;54.33;100996.13;4985572;28;20034;-45
2023/04/15 02:56:07;;;;;;;16.67;9.38;;;;;;;11.11;54.38;100996.22;4981506;28;20042;-42
2023/04/15 02:58:33;;;;;;;21.35;10.10;;;;;;;11.14;54.07;101003.22;4987803;28;20046;-43
2023/04/15 03:00:59;;;;;;;17.52;9.57;;;;;;;10.75;55.67;101001.81;4986936;28;20113;-43
2023/04/15 03:03:25;;;;;;;16.63;9.88;;;;;;;10.65;55.71;100999.06;4980935;28;20127;-42
2023/04/15 03:05:50;;;;;;;15.80;9.65;;;;;;;10.96;55.38;101001.25;4984427;28;20381;-41
2023/04/15 03:08:16;;;;;;;20.45;10.80;;;;;;;10.99;55.28;101006.50;5016298;22;20064;-41
2023/04/15 03:10:41;;;;;;;17.48;10.27;;;;;;;10.97;55.39;101005.63;5005631;28;20521;-43
2023/04/15 03:13:07;;;;;;;17.42;9.63;;;;;;;10.78;55.81;101007.09;5002869;28;20041;-43
2023/04/15 03:15:33;;;;;;;16.85;9.95;;;;;;;10.84;56.24;101001.09;5006605;28;20052;-42
2023/04/15 03:17:58;;;;;;;16.23;9.70;;;;;;;10.90;55.64;101007.25;5006552;28;20030;-42
2023/04/15 03:20:23;;;;;;;18.77;9.65;;;;;;;10.81;56.25;101008.84;5004574;28;20049;-41
2023/04/15 03:22:49;;;;;;;18.08;9.43;;;;;;;10.86;55.84;101012.38;5007887;28;20125;-41
2023/04/15 03:25:14;;;;;;;17.20;9.85;;;;;;;10.71;56.86;101010.47;5004440;28;20107;-44
2023/04/15 03:27:40;;;;;;;17.10;9.52;;;;;;;10.75;56.59;101017.47;5006926;28;20045;-43
2023/04/15 03:30:06;;;;;;;15.80;9.45;;;;;;;10.84;56.46;101027.16;5001969;28;20108;-42
2023/04/15 03:32:32;;;;;;;16.33;9.98;;;;;;;10.78;56.47;101021.84;5003711;28;20489;-42
2023/04/15 03:34:57;;;;;;;16.70;9.13;;;;;;;10.75;56.99;101025.28;4999836;28;20088;-41
2023/04/15 03:37:22;;;;;;;16.85;9.88;;;;;;;10.78;56.94;101027.06;5000087;28;20056;-42
2023/04/15 03:39:48;;;;;;;13.90;9.30;;;;;;;10.81;56.54;101027.09;5003704;28;20042;-41
2023/04/15 03:42:13;;;;;;;15.27;9.40;;;;;;;10.80;56.65;101027.94;5000268;28;20033;-41
2023/04/15 03:44:38;;;;;;;19.05;9.73;;;;;;;10.83;56.63;101033.22;5003319;28;20100;-43
2023/04/15 03:47:04;;;;;;;18.98;9.25;;;;;;;10.77;56.76;101035.75;4999071;28;20048;-42
2023/04/15 03:49:29;;;;;;;15.32;9.73;;;;;;;10.49;57.73;101039.66;5003501;28;20497;-42
2023/04/15 03:51:55;;;;;;;17.38;10.23;;;;;;;10.46;57.73;101040.47;5003462;28;20188;-41
2023/04/15 03:54:20;;;;;;;17.67;9.63;;;;;;;10.64;57.54;101049.44;4999983;28;20100;-41
2023/04/15 03:56:45;;;;;;;17.63;9.90;;;;;;;10.62;57.27;101053.75;5002895;28;20042;-43
2023/04/15 03:59:11;;;;;;;17.60;9.75;;;;;;;10.57;58.01;101051.06;4982581;28;20034;-41
2023/04/15 04:01:36;;;;;;;18.35;9.65;;;;;;;10.53;57.78;101057.97;5003585;28;20050;-42
2023/04/15 04:04:01;;;;;;;15.60;9.48;;;;;;;10.43;58.00;101061.25;4999937;28;20063;-41
2023/04/15 04:06:27;;;;;;;16.38;9.55;;;;;;;10.36;58.52;101059.44;5002781;28;20042;-41
2023/04/15 04:08:52;;;;;;;15.95;9.57;;;;;;;10.39;58.29;101069.00;5002576;28;20407;-42
2023/04/15 04:11:17;;;;;;;17.30;9.65;;;;;;;10.35;58.24;101072.44;4999253;28;20120;-43
2023/04/15 04:13:42;;;;;;;17.92;10.02;;;;;;;10.31;58.63;101076.69;5003859;28;20400;-40
2023/04/15 04:16:08;;;;;;;17.38;9.63;;;;;;;10.35;58.36;101077.63;4995784;28;20430;-41
2023/04/15 04:18:33;;;;;;;17.25;9.65;;;;;;;10.26;58.53;101080.94;5003218;28;20046;-42
2023/04/15 04:20:59;;;;;;;14.30;9.02;;;;;;;10.24;58.71;101074.84;5003454;28;20057;-41
2023/04/15 04:23:25;;;;;;;17.65;9.88;;;;;;;10.15;59.30;101087.66;4999823;28;20080;-42
2023/04/15 04:25:51;;;;;;;20.02;9.95;;;;;;;10.20;58.81;101092.97;5002590;28;20042;-42
2023/04/15 04:28:17;;;;;;;16.25;9.48;;;;;;;10.10;59.60;101090.19;4999385;28;20112;-39
2023/04/15 04:30:42;;;;;;;15.55;9.57;;;;;;;10.15;59.06;101096.34;5003684;28;20120;-42
2023/04/15 04:33:07;;;;;;;16.85;9.73;;;;;;;10.07;59.19;101099.66;4981899;28;20037;-42
2023/04/15 04:35:36;;;;;;;14.48;9.32;;;;;;;10.07;59.56;101105.75;5004601;28;20044;-41
2023/04/15 04:38:02;;;;;;;15.70;9.38;;;;;;;10.25;58.71;101101.75;5001615;28;20120;-56
2023/04/15 04:40:27;;;;;;;17.38;9.98;;;;;;;10.25;59.03;101109.56;5002543;28;20140;-41
2023/04/15 04:42:53;;;;;;;16.88;10.10;;;;;;;10.25;59.04;101112.19;5003151;28;20037;-41
2023/04/15 04:45:19;;;;;;;16.20;9.35;;;;;;;10.22;59.38;101118.22;4983385;28;20057;-42
2023/04/15 04:47:45;;;;;;;15.63;9.80;;;;;;;10.26;59.00;101124.38;5004378;28;20065;-41
2023/04/15 04:50:11;;;;;;;15.23;9.68;;;;;;;10.23;59.60;101125.19;4998944;28;20040;-42
2023/04/15 04:52:36;;;;;;;21.17;10.50;;;;;;;10.22;59.21;101131.25;5002478;28;20228;-42
2023/04/15 04:55:02;;;;;;;15.25;8.88;;;;;;;10.22;59.59;101130.38;4999343;28;20026;-44
2023/04/15 04:57:27;;;;;;;14.77;8.90;;;;;;;10.20;59.76;101132.06;5001233;28;20096;-41
2023/04/15 04:59:53;;;;;;;18.05;10.07;;;;;;;10.19;59.54;101144.22;5002295;28;20037;-42
2023/04/15 05:02:18;;;;;;;18.77;12.43;;;;;;;10.21;59.66;101141.63;4996624;28;20030;-41
2023/04/15 05:04:43;;;;;;;21.60;13.05;;;;;;;10.03;60.16;101144.75;5001100;28;20041;-41
2023/04/15 05:07:08;;;;;;;19.63;12.38;;;;;;;10.18;59.89;101158.13;4997884;28;20064;-41
2023/04/15 05:09:35;;;;;;;17.38;10.77;;;;;;;10.23;59.58;101159.06;5002303;28;20153;-41
2023/04/15 05:12:01;;;;;;;18.52;10.48;;;;;;;10.27;59.86;101160.88;4984446;28;20034;-41
2023/04/15 05:14:26;;;;;;;18.25;11.52;;;;;;;10.21;59.91;101165.97;4998714;28;20030;-41
2023/04/15 05:16:51;;;;;;;24.23;14.73;;;;;;;10.17;59.93;101166.78;5002030;28;20032;-43
2023/04/15 05:19:17;;;;;;;18.52;11.68;;;;;;;10.26;59.78;101179.09;4999256;28;20053;-41
2023/04/15 05:21:42;;;;;;;19.20;11.43;;;;;;;10.24;60.41;101186.00;4975841;28;20030;-41
2023/04/15 05:24:07;;;;;;;16.98;10.82;;;;;;;10.18;60.09;101184.16;4999292;28;20049;-43
2023/04/15 05:26:32;;;;;;;17.55;10.82;;;;;;;10.06;60.90;101189.94;5006155;28;20026;-43
2023/04/15 05:28:58;;;;;;;18.30;10.60;;;;;;;10.29;60.51;101198.28;5005796;28;20034;-45
2023/04/15 05:31:23;;;;;;;18.40;10.57;;;;;;;10.28;60.20;101200.84;4999212;28;20033;-41
2023/04/15 05:33:49;;;;;;;16.75;9.90;;;;;;;10.30;60.98;101205.25;5002717;28;20030;-42
2023/04/15 05:36:14;;;;;;;16.88;10.02;;;;;;;10.39;60.81;101212.34;4998886;28;20056;-41
2023/04/15 05:38:40;;;;;;;17.23;10.45;;;;;;;10.45;60.74;101215.97;5001741;28;20092;-40
2023/04/15 05:41:05;;;;;;;17.85;10.00;;;;;;;10.46;61.22;101222.94;4998391;28;20030;-43
2023/04/15 05:43:30;;;;;;;16.63;10.02;;;;;;;10.61;60.84;101230.19;5002045;28;20389;-42
2023/04/15 05:45:56;;;;;;;15.80;9.40;;;;;;;10.71;60.49;101229.50;5001884;28;20038;-43
2023/04/15 05:48:21;;;;;;;16.52;9.80;;;;;;;10.93;59.52;101231.63;4998266;28;20053;-42
2023/04/15 05:50:46;;;;;;;15.77;10.05;;;;;;;10.96;59.51;101233.41;5001591;28;20079;-42
2023/04/15 05:53:12;;;;;;;19.33;9.93;;;;;;;11.17;59.28;101243.31;4998525;28;20033;-41
2023/04/15 05:55:37;;;;;;;16.73;9.95;;;;;;;11.28;59.05;101247.88;5004417;28;20400;-42
2023/04/15 05:58:02;;;;;;;16.85;10.10;;;;;;;11.53;58.33;101248.25;5002877;28;20029;-42
2023/04/15 06:00:28;;;;;;;16.60;9.95;;;;;;;11.42;58.20;101262.88;5008118;28;20400;-43
2023/04/15 06:02:55;;;;;;;15.25;9.57;;;;;;;11.37;58.70;101265.44;5010378;28;20105;-41
2023/04/15 06:05:20;;;;;;;15.88;9.70;;;;;;;11.28;59.17;101266.13;5008695;28;20030;-42
2023/04/15 06:07:45;;;;;;;19.35;9.65;;;;;;;11.48;58.86;101273.41;5011101;28;20033;-42
2023/04/15 06:10:11;;;;;;;16.17;9.88;;;;;;;11.59;58.58;101284.91;5003793;28;20368;-41
2023/04/15 06:12:36;;;;;;;15.50;9.77;;;;;;;11.36;59.28;101287.16;5005911;28;20030;-41
2023/04/15 06:15:02;;;;;;;15.38;9.80;;;;;;;11.80;58.23;101295.72;4988234;28;20352;-42
2023/04/15 06:17:28;;;;;;;17.08;9.63;;;;;;;11.85;57.93;101299.28;5003153;28;20058;-43
2023/04/15 06:19:56;;;;;;;17.00;9.80;;;;;;;12.11;57.46;101297.94;5005399;28;20117;-45
2023/04/15 06:22:22;;;;;;;19.85;10.63;;;;;;;12.28;57.14;101310.34;5004642;28;22572;-42
2023/04/15 06:24:51;;;;;;;16.70;9.50;;;;;;;12.88;55.95;101318.06;5008456;28;20113;-42
2023/04/15 06:27:17;;;;;;;14.77;9.27;;;;;;;13.66;53.92;101310.09;5000615;28;20030;-44
2023/04/15 06:29:43;;;;;;;16.35;8.70;;;;;;;14.72;51.46;101314.22;5005595;28;20505;-41
2023/04/15 06:32:09;;;;;;;14.75;8.65;;;;;;;15.68;48.52;101317.91;5001691;28;20476;-41
2023/04/15 06:34:34;;;;;;;12.80;8.70;;;;;;;16.48;46.34;101324.75;5005033;28;22958;-42
2023/04/15 06:37:00;;;;;;;11.85;8.45;;;;;;;16.98;42.77;101324.56;5004385;28;20068;-43
2023/04/15 06:39:25;;;;;;;12.55;8.25;;;;;;;17.45;42.47;101324.25;5001696;28;20022;-42
2023/04/15 06:41:51;;;;;;;12.52;8.43;;;;;;;17.56;42.01;101330.31;4987037;28;20492;-43
2023/04/15 06:44:17;;;;;;;14.43;8.48;;;;;;;18.48;40.50;101331.16;5001190;28;20053;-42
2023/04/15 06:46:42;;;;;;;11.82;7.53;;;;;;;19.17;40.30;101333.81;5005449;28;20022;-42
2023/04/15 06:49:08;;;;;;;10.45;7.38;;;;;;;19.69;38.39;101333.06;5000879;28;20121;-45
2023/04/15 06:51:34;;;;;;;10.77;7.53;;;;;;;20.61;36.29;101338.41;5005301;28;20120;-41
2023/04/15 06:54:01;;;;;;;12.63;8.15;;;;;;;19.57;37.01;101338.53;5004673;28;20033;-42
2023/04/15 06:56:26;;;;;;;12.55;7.80;;;;;;;19.41;37.11;101337.84;5000609;28;20049;-42
2023/04/15 06:58:51;;;;;;;13.63;8.10;;;;;;;19.79;36.37;101337.28;5004350;28;20068;-41
2023/04/15 07:01:17;;;;;;;10.52;7.57;;;;;;;19.64;37.50;101345.50;5001904;28;20072;-45
2023/04/15 07:03:42;;;;;;;11.23;8.10;;;;;;;19.34;37.44;101344.13;5004665;28;20033;-45
2023/04/15 07:06:08;;;;;;;11.50;8.18;;;;;;;19.30;36.98;101353.03;5000155;28;20034;-42
2023/04/15 07:08:34;;;;;;;13.30;7.95;;;;;;;19.91;36.27;101360.00;5003888;28;20030;-44
2023/04/15 07:11:00;;;;;;;14.18;7.80;;;;;;;19.45;36.84;101363.38;5004084;28;20030;-44
2023/04/15 07:13:26;;;;;;;11.63;7.72;;;;;;;19.49;37.74;101364.22;5000985;28;20029;-42
2023/04/15 07:15:51;;;;;;;11.18;7.72;;;;;;;19.28;37.66;101365.38;5005471;28;20093;-42
2023/04/15 07:18:16;;;;;;;11.02;7.60;;;;;;;19.81;37.50;101369.88;4987759;28;20034;-45
2023/04/15 07:20:42;;;;;;;10.65;7.80;;;;;;;19.65;37.55;101371.00;5007298;28;20034;-42
2023/04/15 07:23:07;;;;;;;10.77;7.78;;;;;;;20.69;35.78;101373.56;5002963;28;20490;-42
2023/04/15 07:25:33;;;;;;;10.65;7.70;;;;;;;20.68;36.02;101379.75;5007092;28;20456;-41
2023/04/15 07:27:58;;;;;;;10.18;7.60;;;;;;;20.75;35.65;101380.50;5007095;28;20389;-42
2023/04/15 07:30:23;;;;;;;13.85;7.70;;;;;;;20.40;35.46;101387.38;5001945;28;20076;-42
2023/04/15 07:32:48;;;;;;;11.25;8.10;;;;;;;20.45;35.87;101388.16;5005476;28;20117;-42
2023/04/15 07:35:14;;;;;;;9.50;7.63;;;;;;;20.95;35.18;101392.44;5001531;28;20050;-43
2023/04/15 07:37:42;;;;;;;10.05;7.50;;;;;;;21.14;34.93;101405.31;5004782;28;20029;-45
2023/04/15 07:40:08;;;;;;;11.18;7.45;;;;;;;20.75;35.67;101401.69;4984679;28;20058;-41
2023/04/15 07:42:33;;;;;;;11.25;8.20;;;;;;;20.53;35.71;101410.09;5005919;28;20042;-42
2023/04/15 07:44:59;;;;;;;10.05;7.80;;;;;;;20.48;35.16;101419.91;5004014;28;20029;-42
2023/04/15 07:47:25;;;;;;;11.48;8.38;;;;;;;20.00;36.83;101416.31;5000293;28;20121;-42
2023/04/15 07:49:50;;;;;;;10.43;7.95;;;;;;;20.15;37.14;101428.41;5004359;28;20500;-41
2023/04/15 07:52:16;;;;;;;10.02;7.72;;;;;;;21.00;35.81;101426.81;5001483;28;20026;-42
2023/04/15 07:54:41;;;;;;;10.82;8.05;;;;;;;20.36;36.12;101432.50;5007582;28;20126;-42
2023/04/15 07:57:07;;;;;;;11.43;8.02;;;;;;;19.87;37.56;101435.94;5003589;28;20033;-43
2023/04/15 07:59:32;;;;;;;12.63;8.20;;;;;;;18.86;39.58;101444.34;5004794;28;20034;-42
2023/04/15 08:01:58;;;;;;;11.95;8.63;;;;;;;17.70;42.04;101451.53;5003302;28;20022;-42
2023/04/15 08:04:23;;;;;;;12.88;9.32;;;;;;;16.96;43.96;101448.34;4999675;28;20484;-43
2023/04/15 08:06:49;;;;;;;14.18;9.30;;;;;;;16.54;45.16;101464.25;5005403;28;20041;-42
2023/04/15 08:09:15;;;;;;;12.15;8.75;;;;;;;16.28;47.32;101472.19;5001789;28;20053;-43
2023/04/15 08:11:40;;;;;;;13.20;9.45;;;;;;;15.88;47.73;101473.91;5008298;28;20065;-41
2023/04/15 08:14:05;;;;;;;14.10;9.25;;;;;;;15.88;47.68;101479.16;5004651;28;20101;-42
2023/04/15 08:16:31;;;;;;;12.90;9.00;;;;;;;15.93;47.29;101481.78;5003665;28;20034;-41
2023/04/15 08:18:56;;;;;;;12.68;9.30;;;;;;;15.79;48.04;101487.94;5002866;28;20381;-43
2023/04/15 08:21:23;;;;;;;11.48;8.88;;;;;;;15.85;47.90;101492.31;4997904;28;20046;-42
2023/04/15 08:23:50;;;;;;;13.77;9.65;;;;;;;15.38;48.36;101490.41;5003723;28;20076;-42
2023/04/15 08:26:17;;;;;;;13.73;9.32;;;;;;;15.60;48.25;101496.66;4999229;28;20063;-42
2023/04/15 08:28:44;;;;;;;14.20;9.00;;;;;;;15.74;47.53;101499.28;5003195;28;20030;-42
2023/04/15 08:31:11;;;;;;;13.13;8.98;;;;;;;15.27;48.07;101504.38;4999871;28;20046;-43
2023/04/15 08:33:37;;;;;;;11.55;8.27;;;;;;;15.29;48.36;101507.88;5003375;28;20539;-41
2023/04/15 08:36:02;;;;;;;10.75;7.80;;;;;;;15.71;47.03;101512.44;5000708;28;20331;-45
2023/04/15 08:38:27;;;;;;;11.32;7.97;;;;;;;15.73;46.83;101518.59;5002073;28;20060;-40
2023/04/15 08:40:54;;;;;;;11.95;7.80;;;;;;;15.91;46.58;101523.88;5003411;28;20488;-42
2023/04/15 08:43:29;;;;;;;20.95;8.30;;;;;;;16.28;45.81;101524.81;4999589;28;20033;-43
2023/04/15 08:45:54;;;;;;;12.23;7.72;;;;;;;15.76;46.47;101526.47;5002952;28;20097;-45
2023/04/15 08:48:22;;;;;;;12.80;7.22;;;;;;;15.71;46.94;101531.72;4999753;28;20636;-45
2023/04/15 08:50:48;;;;;;;11.30;7.20;;;;;;;15.55;46.22;101531.69;5003893;28;20038;-42
2023/04/15 08:53:14;;;;;;;11.52;7.10;;;;;;;15.93;46.36;101543.16;4982547;28;20120;-41
2023/04/15 08:55:50;;;;;;;11.48;7.70;;;;;;;15.73;46.35;101540.50;5003336;28;20084;-41
2023/04/15 08:58:18;;;;;;;10.63;7.28;;;;;;;16.03;46.37;101549.34;4981364;28;20578;-40
2023/04/15 09:00:44;;;;;;;11.52;7.55;;;;;;;16.14;45.57;101547.59;5003990;28;20412;-41
2023/04/15 09:03:10;;;;;;;13.65;7.47;;;;;;;16.16;45.64;101545.84;4999421;28;20511;-41
2023/04/15 09:05:37;;;;;;;11.38;7.55;;;;;;;15.91;45.65;101547.56;5003246;28;20037;-41
2023/04/15 09:08:03;;;;;;;12.32;7.38;;;;;;;16.24;45.13;101570.38;4945286;28;20079;-44
2023/04/15 09:10:29;;;;;;;11.95;7.25;;;;;;;15.98;45.30;101561.59;4977173;28;20042;-41
2023/04/15 09:12:56;;;;;;;11.80;7.05;;;;;;;15.87;45.96;101560.66;4985035;28;20057;-42
2023/04/15 09:15:24;;;;;;;11.50;6.88;;;;;;;15.75;45.68;101554.50;5000369;28;20396;-41
2023/04/15 09:17:49;;;;;;;12.30;7.03;;;;;;;16.00;45.94;101565.97;5002184;28;20173;-38
2023/04/15 09:20:17;;;;;;;10.02;6.90;;;;;;;15.88;45.27;101565.94;4995594;28;20130;-41
2023/04/15 09:22:45;;;;;;;11.82;7.10;;;;;;;16.08;44.95;101572.13;5002673;28;20088;-40
2023/04/15 09:25:14;;;;;;;10.77;7.00;;;;;;;16.26;44.63;101581.81;4981938;28;20030;-40
2023/04/15 09:27:53;;;;;;;10.00;6.20;;;;;;;16.38;43.58;101592.34;5002709;28;20038;-44
2023/04/15 09:30:19;;;;;;;10.60;6.40;;;;;;;16.01;44.81;101588.78;5000789;28;20104;-40
2023/04/15 09:32:52;;;;;;;11.68;6.65;;;;;;;16.02;44.65;101600.16;5007623;28;20034;-40
2023/04/15 09:35:18;;;;;;;10.70;6.40;;;;;;;16.16;44.36;101591.41;5003581;28;20034;-40
2023/04/15 09:37:43;;;;;;;10.25;6.03;;;;;;;16.23;44.56;101598.44;5007496;28;20481;-40
2023/04/15 09:40:09;;;;;;;10.32;6.03;;;;;;;15.92;44.78;101606.28;4984854;28;20112;-40
2023/04/15 09:42:36;;;;;;;10.60;6.32;;;;;;;16.06;44.70;101607.19;5005741;28;20053;-40
2023/04/15 09:45:11;;;;;;;8.90;5.32;;;;;;;16.38;42.52;101613.41;5006430;28;20125;-40
2023/04/15 09:47:36;;;;;;;9.35;5.57;;;;;;;16.61;43.09;101622.22;5004894;28;20129;-40
2023/04/15 09:50:02;;;;;;;7.95;5.18;;;;;;;16.19;41.06;101620.38;5006720;28;20113;-48
2023/04/15 09:52:28;;;;;;;8.75;4.93;;;;;;;16.41;41.88;101628.28;5005260;28;20036;-40
2023/04/15 09:54:57;;;;;;;9.82;4.68;;;;;;;16.49;42.28;101624.81;5006489;28;20484;-41
2023/04/15 09:57:23;;;;;;;5.97;3.90;;;;;;;16.79;40.59;101623.09;5003369;28;20105;-40
2023/04/15 09:59:49;;;;;;;7.50;4.90;;;;;;;16.52;41.31;101630.09;5009461;28;20069;-42
2023/04/15 10:02:17;;;;;;;6.55;4.20;;;;;;;16.46;41.12;101635.34;5005561;28;20030;-41
2023/04/15 10:04:43;;;;;;;7.43;4.10;;;;;;;16.00;43.29;101628.22;5008044;28;20025;-39
2023/04/15 10:07:10;;;;;;;8.70;3.85;;;;;;;16.24;41.67;101636.16;5003507;28;20041;-43
2023/04/15 10:09:37;;;;;;;6.10;3.50;;;;;;;15.99;39.58;101642.22;5006385;28;20042;-44
2023/04/15 10:12:03;;;;;;;6.15;3.50;;;;;;;16.64;39.52;101645.06;4985580;28;20408;-42
2023/04/15 10:14:32;;;;;;;7.03;3.72;;;;;;;16.64;39.95;101645.06;5005593;28;20044;-41
2023/04/15 10:17:01;;;;;;;6.75;3.92;;;;;;;16.28;40.27;101645.84;4986972;28;20042;-40
2023/04/15 10:19:32;;;;;;;6.68;3.53;;;;;;;15.68;41.13;101642.09;5000639;28;20022;-41
2023/04/15 10:21:58;;;;;;;7.82;3.70;;;;;;;16.29;40.75;101638.81;5004318;28;20450;-41
2023/04/15 10:24:24;;;;;;;6.55;3.78;;;;;;;16.54;40.92;101653.75;5000772;28;20049;-41
2023/04/15 10:26:51;;;;;;;6.50;3.40;;;;;;;16.50;39.47;101647.63;5005840;28;20393;-40
2023/04/15 10:29:17;;;;;;;7.00;4.00;;;;;;;16.28;40.29;101652.84;5001869;28;20345;-41
2023/04/15 10:31:43;;;;;;;6.80;3.60;;;;;;;16.28;40.33;101652.84;5005246;28;20070;-46
2023/04/15 10:34:09;;;;;;;6.10;3.80;;;;;;;16.50;40.32;101646.75;4999372;28;20049;-45
2023/04/15 10:36:35;;;;;;;5.75;3.50;;;;;;;16.79;39.31;101662.59;5005336;28;20088;-41
2023/04/15 10:39:01;;;;;;;5.35;3.60;;;;;;;16.70;39.79;101652.97;4987162;28;20400;-44
2023/04/15 10:41:33;;;;;;;4.95;3.50;;;;;;;16.81;39.60;101667.00;5002411;28;20033;-41
2023/04/15 10:43:58;;;;;;;6.80;3.97;;;;;;;16.63;40.67;101654.69;5006415;28;20034;-41
2023/04/15 10:46:35;;;;;;;7.03;3.60;;;;;;;17.06;40.22;101665.25;5001118;28;20056;-41
2023/04/15 10:49:06;;;;;;;7.22;3.90;;;;;;;17.43;40.09;101672.22;5009303;28;20041;-41
2023/04/15 10:51:32;;;;;;;6.97;4.20;;;;;;;17.24;41.69;101661.72;5003807;28;20034;-41
2023/04/15 10:54:01;;;;;;;9.27;4.40;;;;;;;16.75;40.77;101667.00;5007348;28;20044;-42
2023/04/15 10:56:30;;;;;;;8.35;4.22;;;;;;;17.07;40.36;101667.00;5000455;28;20484;-40
2023/04/15 10:58:58;;;;;;;7.53;4.15;;;;;;;16.94;40.62;101673.16;5004126;28;20037;-41
2023/04/15 11:01:50;;;;;;;6.07;4.35;;;;;;;16.83;40.32;101669.66;4999237;28;20528;-41
2023/04/15 11:04:54;;;;;;;7.70;4.50;;;;;;;17.02;39.50;101666.97;5000299;28;20076;-42
2023/04/15 11:07:37;;;;;;;6.22;3.90;;;;;;;17.32;39.79;101676.59;4982348;28;20373;-44
2023/04/15 11:10:29;;;;;;;6.00;4.20;;;;;;;17.82;39.57;101671.25;5000264;28;20058;-41
2023/04/15 11:13:00;;;;;;;5.82;3.95;;;;;;;17.57;39.51;101681.84;4988549;28;20441;-41